| time (UTC) | temp F | wind direction | speed knots | gust knots | rain 1hr in | rain 24hr in | rain mn in | humidity % | barometer mb |
| 20260505153320 | 81 | 21 | 3.5 | 5.2 | 0.00 | 0.00 | 0.00 | 67 | 1020.2 |
| 20260505152817 | 83 | 63 | 2.6 | 2.6 | 0.00 | 0.00 | 0.00 | 64 | 1020.2 |
| 20260505152314 | 81 | 57 | 1.7 | 1.7 | 0.00 | 0.00 | 0.00 | 68 | 1020.2 |
| 20260505151813 | 80 | 135 | 1.7 | 2.6 | 0.00 | 0.00 | 0.00 | 69 | 1020.2 |
| 20260505151310 | 82 | 96 | 3.5 | 4.3 | 0.00 | 0.00 | 0.00 | 66 | 1020.2 |
| 20260505150807 | 81 | 41 | 4.3 | 6.1 | 0.00 | 0.00 | 0.00 | 69 | 1020.2 |
| 20260505150304 | 81 | 104 | 2.6 | 4.3 | 0.00 | 0.00 | 0.00 | 69 | 1020.2 |
| 20260505140229 | 78 | 94 | 3.5 | 4.3 | 0.00 | 0.00 | 0.00 | 72 | 1019.9 |
| 20260505130152 | 75 | 138 | 6.1 | 7.8 | 0.00 | 0.00 | 0.00 | 77 | 1019.5 |
| 20260505124642 | 74 | 149 | 0.9 | 1.7 | 0.00 | 0.00 | 0.00 | 80 | 1019.5 |
| 20260505124139 | 74 | 88 | 4.3 | 7.0 | 0.00 | 0.00 | 0.00 | 81 | 1019.2 |
| 20260505123635 | 74 | 134 | 0.9 | 0.9 | 0.00 | 0.00 | 0.00 | 81 | 1019.5 |
| 20260505123132 | 73 | 183 | 0.9 | 0.9 | 0.00 | 0.00 | 0.00 | 82 | 1019.5 |
| 20260505122628 | 72 | 117 | 1.7 | 1.7 | 0.00 | 0.00 | 0.00 | 83 | 1019.9 |
| 20260505122126 | 72 | 170 | 0.9 | 1.7 | 0.00 | 0.00 | 0.00 | 84 | 1019.2 |
| 20260505121622 | 72 | 116 | 3.5 | 4.3 | 0.00 | 0.00 | 0.00 | 83 | 1019.5 |
| 20260505121119 | 72 | 76 | 1.7 | 2.6 | 0.00 | 0.00 | 0.00 | 84 | 1019.5 |
| 20260505120615 | 71 | 66 | 1.7 | 2.6 | 0.00 | 0.00 | 0.00 | 85 | 1019.2 |
| 20260505120111 | 71 | 128 | 2.6 | 4.3 | 0.00 | 0.00 | 0.00 | 85 | 1019.5 |
| 20260505115606 | 71 | 153 | 0.9 | 0.9 | 0.00 | 0.00 | 0.00 | 86 | 1019.5 |
| 20260505115103 | 70 | 121 | 0.9 | 0.9 | 0.00 | 0.00 | 0.00 | 86 | 1019.2 |
| 20260505114600 | 70 | 108 | 2.6 | 2.6 | 0.00 | 0.00 | 0.00 | 87 | 1019.2 |
| 20260505114056 | 69 | 139 | 0.9 | 1.7 | 0.00 | 0.00 | 0.00 | 89 | 1018.8 |
| 20260505113553 | 69 | 98 | 1.7 | 4.3 | 0.00 | 0.00 | 0.00 | 89 | 1018.8 |
| 20260505113050 | 68 | 108 | 0.9 | 0.9 | 0.00 | 0.00 | 0.00 | 90 | 1018.5 |
| 20260505112546 | 68 | 173 | 1.7 | 1.7 | 0.00 | 0.00 | 0.00 | 91 | 1018.8 |
| 20260505112044 | 67 | 117 | 0.0 | 0.0 | 0.00 | 0.00 | 0.00 | 92 | 1018.8 |
| 20260505111538 | 67 | 134 | 0.9 | 0.9 | 0.00 | 0.00 | 0.00 | 93 | 1018.8 |
| 20260505111034 | 67 | 138 | 0.0 | 0.0 | 0.00 | 0.00 | 0.00 | 93 | 1018.8 |
| 20260505110531 | 67 | 157 | 0.9 | 0.9 | 0.00 | 0.00 | 0.00 | 93 | 1018.5 |
| 20260505102003 | 67 | 135 | 0.9 | 1.7 | 0.00 | 0.00 | 0.00 | 92 | 1018.5 |
| 20260505101501 | 67 | 142 | 0.0 | 0.9 | 0.00 | 0.00 | 0.00 | 92 | 1018.2 |
| 20260505100957 | 67 | 83 | 1.7 | 1.7 | 0.00 | 0.00 | 0.00 | 92 | 1018.5 |
| 20260505100455 | 67 | 104 | 0.9 | 1.7 | 0.00 | 0.00 | 0.00 | 92 | 1018.5 |
| 20260505095950 | 67 | 145 | 0.9 | 1.7 | 0.00 | 0.00 | 0.00 | 92 | 1018.5 |
| 20260505095447 | 67 | 5 | 1.7 | 2.6 | 0.00 | 0.00 | 0.00 | 92 | 1018.2 |
| 20260505094944 | 67 | 80 | 1.7 | 1.7 | 0.00 | 0.00 | 0.00 | 92 | 1018.5 |
| 20260505094441 | 67 | 102 | 2.6 | 2.6 | 0.00 | 0.00 | 0.00 | 92 | 1018.2 |
| 20260505093936 | 67 | 138 | 0.0 | 0.9 | 0.00 | 0.00 | 0.00 | 92 | 1018.2 |
| 20260505093434 | 67 | 75 | 1.7 | 1.7 | 0.00 | 0.00 | 0.00 | 92 | 1018.2 |
| 20260505092931 | 67 | 94 | 0.9 | 0.9 | 0.00 | 0.00 | 0.00 | 92 | 1017.8 |
| 20260505092428 | 67 | 62 | 0.9 | 0.9 | 0.00 | 0.00 | 0.00 | 92 | 1018.2 |
| 20260505091926 | 67 | 120 | 1.7 | 2.6 | 0.00 | 0.00 | 0.00 | 92 | 1017.8 |
| 20260505091423 | 68 | 152 | 0.9 | 0.9 | 0.00 | 0.00 | 0.00 | 91 | 1017.8 |
| 20260505090921 | 68 | 102 | 1.7 | 1.7 | 0.00 | 0.00 | 0.00 | 91 | 1018.2 |
| 20260505090419 | 68 | 136 | 0.9 | 0.9 | 0.00 | 0.00 | 0.00 | 91 | 1017.8 |
| 20260505085916 | 68 | 33 | 0.9 | 1.7 | 0.00 | 0.00 | 0.00 | 91 | 1017.8 |
| 20260505085414 | 68 | 69 | 1.7 | 1.7 | 0.00 | 0.00 | 0.00 | 91 | 1017.8 |
| 20260505084912 | 68 | 110 | 0.0 | 0.9 | 0.00 | 0.00 | 0.00 | 91 | 1017.8 |
| 20260505084410 | 68 | 48 | 2.6 | 2.6 | 0.00 | 0.00 | 0.00 | 91 | 1017.8 |
| 20260505083908 | 68 | 87 | 0.9 | 1.7 | 0.00 | 0.00 | 0.00 | 91 | 1017.8 |
| 20260505083405 | 68 | 101 | 0.9 | 0.9 | 0.00 | 0.00 | 0.00 | 91 | 1017.8 |
| 20260505082901 | 68 | 121 | 0.9 | 0.9 | 0.00 | 0.00 | 0.00 | 90 | 1017.8 |
| 20260505082357 | 68 | 118 | 0.9 | 0.9 | 0.00 | 0.00 | 0.00 | 90 | 1018.2 |
| 20260505081854 | 68 | 106 | 0.9 | 1.7 | 0.00 | 0.00 | 0.00 | 90 | 1017.8 |
| 20260505081350 | 68 | 82 | 0.9 | 1.7 | 0.00 | 0.00 | 0.00 | 90 | 1017.8 |
| 20260505080847 | 68 | 94 | 0.0 | 0.0 | 0.00 | 0.00 | 0.00 | 90 | 1017.5 |
| 20260505080343 | 68 | 47 | 1.7 | 1.7 | 0.00 | 0.00 | 0.00 | 90 | 1017.8 |
| 20260505075839 | 68 | 98 | 2.6 | 4.3 | 0.00 | 0.00 | 0.00 | 90 | 1017.8 |
| 20260505075336 | 68 | 121 | 0.9 | 1.7 | 0.00 | 0.00 | 0.00 | 90 | 1017.8 |
| 20260505074833 | 68 | 56 | 0.9 | 1.7 | 0.00 | 0.00 | 0.00 | 89 | 1018.2 |
| 20260505074330 | 68 | 46 | 0.9 | 0.9 | 0.00 | 0.00 | 0.00 | 89 | 1018.2 |
| 20260505073828 | 68 | 111 | 0.0 | 0.9 | 0.00 | 0.00 | 0.00 | 89 | 1018.5 |
| 20260505073326 | 68 | 77 | 1.7 | 1.7 | 0.00 | 0.00 | 0.00 | 89 | 1018.2 |
| 20260505072822 | 69 | 139 | 2.6 | 2.6 | 0.00 | 0.00 | 0.00 | 89 | 1018.2 |
| 20260505072318 | 69 | 165 | 0.0 | 0.9 | 0.00 | 0.00 | 0.00 | 88 | 1018.2 |
| 20260505071814 | 69 | 137 | 0.9 | 0.9 | 0.00 | 0.00 | 0.00 | 88 | 1018.5 |
| 20260505071311 | 69 | 100 | 2.6 | 2.6 | 0.00 | 0.00 | 0.00 | 88 | 1018.2 |
| 20260505070809 | 69 | 92 | 2.6 | 4.3 | 0.00 | 0.00 | 0.00 | 87 | 1017.8 |
| 20260505070305 | 69 | 126 | 1.7 | 2.6 | 0.00 | 0.00 | 0.00 | 87 | 1018.2 |
| 20260505065800 | 69 | 78 | 0.9 | 1.7 | 0.00 | 0.00 | 0.00 | 87 | 1017.8 |
| 20260505065258 | 69 | 52 | 1.7 | 1.7 | 0.00 | 0.00 | 0.00 | 87 | 1018.2 |
| 20260505064755 | 69 | 125 | 0.9 | 0.9 | 0.00 | 0.00 | 0.00 | 87 | 1018.5 |
| 20260505064252 | 69 | 47 | 1.7 | 1.7 | 0.00 | 0.00 | 0.00 | 86 | 1018.5 |
| 20260505063749 | 69 | 56 | 2.6 | 2.6 | 0.00 | 0.00 | 0.00 | 86 | 1018.5 |
| 20260505063246 | 70 | 71 | 3.5 | 4.3 | 0.00 | 0.00 | 0.00 | 86 | 1018.5 |
| 20260505062742 | 70 | 89 | 1.7 | 1.7 | 0.00 | 0.00 | 0.00 | 86 | 1018.8 |
| 20260505062240 | 70 | 74 | 0.9 | 1.7 | 0.00 | 0.00 | 0.00 | 86 | 1018.5 |
| 20260505061737 | 70 | 74 | 1.7 | 1.7 | 0.00 | 0.00 | 0.00 | 86 | 1019.2 |
| 20260505061235 | 70 | 84 | 0.9 | 2.6 | 0.00 | 0.00 | 0.00 | 86 | 1018.8 |
| 20260505060731 | 70 | 71 | 1.7 | 2.6 | 0.00 | 0.00 | 0.00 | 86 | 1018.8 |
| 20260505060229 | 70 | 82 | 1.7 | 2.6 | 0.00 | 0.00 | 0.00 | 86 | 1019.2 |
| 20260505055724 | 70 | 32 | 0.9 | 1.7 | 0.00 | 0.00 | 0.00 | 86 | 1019.2 |
| 20260505055220 | 70 | 75 | 1.7 | 1.7 | 0.00 | 0.00 | 0.00 | 86 | 1019.2 |
| 20260505054718 | 70 | 90 | 0.9 | 1.7 | 0.00 | 0.00 | 0.00 | 86 | 1019.2 |
| 20260505054216 | 70 | 5 | 1.7 | 2.6 | 0.00 | 0.00 | 0.00 | 86 | 1019.2 |
| 20260505053714 | 70 | 78 | 1.7 | 1.7 | 0.00 | 0.00 | 0.00 | 86 | 1019.2 |
| 20260505053209 | 70 | 135 | 0.9 | 0.9 | 0.00 | 0.00 | 0.00 | 86 | 1019.2 |
| 20260505052707 | 70 | 82 | 1.7 | 1.7 | 0.00 | 0.00 | 0.00 | 85 | 1019.2 |
| 20260505052204 | 70 | 88 | 0.9 | 0.9 | 0.00 | 0.00 | 0.00 | 85 | 1019.2 |
| 20260505051701 | 70 | 37 | 0.9 | 1.7 | 0.00 | 0.00 | 0.00 | 85 | 1019.2 |
| 20260505051159 | 70 | 130 | 1.7 | 1.7 | 0.00 | 0.00 | 0.00 | 85 | 1019.2 |
| 20260505050656 | 70 | 102 | 0.9 | 0.9 | 0.00 | 0.00 | 0.00 | 85 | 1019.2 |
| 20260505050150 | 71 | 82 | 0.9 | 0.9 | 0.00 | 0.00 | 0.00 | 84 | 1019.2 |
| 20260505041624 | 71 | 106 | 0.9 | 1.7 | 0.00 | 0.00 | 0.00 | 82 | 1019.5 |
| 20260505041122 | 71 | 133 | 0.9 | 1.7 | 0.00 | 0.00 | 0.00 | 82 | 1019.5 |
| 20260505040619 | 72 | 160 | 2.6 | 2.6 | 0.00 | 0.00 | 0.00 | 82 | 1019.5 |
| 20260505040116 | 72 | 47 | 1.7 | 1.7 | 0.00 | 0.00 | 0.00 | 81 | 1019.5 |
| 20260505035612 | 72 | 162 | 0.0 | 0.9 | 0.00 | 0.00 | 0.00 | 81 | 1019.9 |
| 20260505035108 | 72 | 131 | 0.9 | 0.9 | 0.00 | 0.00 | 0.00 | 81 | 1019.5 |
| 20260505034605 | 72 | 79 | 2.6 | 4.3 | 0.00 | 0.00 | 0.00 | 81 | 1019.5 |
| 20260505034102 | 72 | 55 | 0.9 | 1.7 | 0.00 | 0.00 | 0.00 | 80 | 1019.5 |
| 20260505033559 | 72 | 105 | 1.7 | 1.7 | 0.00 | 0.00 | 0.00 | 80 | 1019.9 |
| 20260505033057 | 73 | 101 | 1.7 | 1.7 | 0.00 | 0.00 | 0.00 | 80 | 1019.5 |
| 20260505032555 | 73 | 68 | 2.6 | 2.6 | 0.00 | 0.00 | 0.00 | 80 | 1019.5 |
| 20260505032051 | 73 | 78 | 1.7 | 1.7 | 0.00 | 0.00 | 0.00 | 79 | 1019.5 |
| 20260505031548 | 73 | 49 | 2.6 | 4.3 | 0.00 | 0.00 | 0.00 | 79 | 1019.5 |
| 20260505031044 | 73 | 78 | 2.6 | 2.6 | 0.00 | 0.00 | 0.00 | 78 | 1020.2 |
| 20260505030542 | 73 | 133 | 0.9 | 0.9 | 0.00 | 0.00 | 0.00 | 78 | 1019.9 |
| 20260505030037 | 74 | 112 | 3.5 | 4.3 | 0.00 | 0.00 | 0.00 | 78 | 1019.9 |
| 20260505025533 | 74 | 44 | 2.6 | 2.6 | 0.00 | 0.00 | 0.00 | 78 | 1019.9 |
| 20260505025033 | 74 | 64 | 1.7 | 2.6 | 0.00 | 0.00 | 0.00 | 77 | 1019.9 |
| 20260505024529 | 74 | 146 | 0.0 | 1.7 | 0.00 | 0.00 | 0.00 | 77 | 1019.9 |
| 20260505024026 | 74 | 102 | 2.6 | 4.3 | 0.00 | 0.00 | 0.00 | 76 | 1019.2 |
| 20260505023523 | 74 | 113 | 0.9 | 1.7 | 0.00 | 0.00 | 0.00 | 76 | 1019.2 |
| 20260505023021 | 75 | 139 | 0.9 | 1.7 | 0.00 | 0.00 | 0.00 | 76 | 1019.5 |
| 20260505022518 | 75 | 79 | 2.6 | 5.2 | 0.00 | 0.00 | 0.00 | 75 | 1019.5 |
| 20260505022015 | 75 | 175 | 2.6 | 5.2 | 0.00 | 0.00 | 0.00 | 75 | 1019.2 |
| 20260505021512 | 75 | 120 | 0.9 | 1.7 | 0.00 | 0.00 | 0.00 | 75 | 1019.5 |
| 20260505021008 | 75 | 72 | 3.5 | 5.2 | 0.00 | 0.00 | 0.00 | 74 | 1019.5 |
| 20260505020503 | 75 | 94 | 1.7 | 1.7 | 0.00 | 0.00 | 0.00 | 74 | 1019.5 |
| 20260505015959 | 75 | 86 | 2.6 | 2.6 | 0.00 | 0.00 | 0.00 | 74 | 1019.2 |
| 20260505015457 | 75 | 86 | 3.5 | 5.2 | 0.00 | 0.00 | 0.00 | 74 | 1019.5 |
| 20260505014954 | 76 | 73 | 2.6 | 4.3 | 0.00 | 0.00 | 0.00 | 73 | 1019.2 |
| 20260505014451 | 76 | 91 | 0.9 | 0.9 | 0.00 | 0.00 | 0.00 | 73 | 1019.2 |
| 20260505013948 | 76 | 68 | 3.5 | 6.1 | 0.00 | 0.00 | 0.00 | 73 | 1019.2 |
| 20260505013445 | 76 | 75 | 3.5 | 4.3 | 0.00 | 0.00 | 0.00 | 72 | 1018.8 |
| 20260505012942 | 76 | 138 | 2.6 | 2.6 | 0.00 | 0.00 | 0.00 | 72 | 1018.8 |
| 20260505012441 | 76 | 47 | 2.6 | 2.6 | 0.00 | 0.00 | 0.00 | 72 | 1018.8 |
| 20260505011937 | 77 | 112 | 2.6 | 4.3 | 0.00 | 0.00 | 0.00 | 71 | 1018.8 |
| 20260505011433 | 77 | 129 | 2.6 | 4.3 | 0.00 | 0.00 | 0.00 | 71 | 1018.8 |
| 20260505010930 | 77 | 114 | 2.6 | 4.3 | 0.00 | 0.00 | 0.00 | 71 | 1018.8 |
| 20260505010426 | 77 | 76 | 3.5 | 4.3 | 0.00 | 0.00 | 0.00 | 70 | 1018.5 |
| 20260505005922 | 78 | 80 | 4.3 | 6.1 | 0.00 | 0.00 | 0.00 | 69 | 1018.5 |
| 20260505005419 | 78 | 137 | 2.6 | 4.3 | 0.00 | 0.00 | 0.00 | 69 | 1018.5 |
| 20260505004917 | 78 | 202 | 2.6 | 5.2 | 0.00 | 0.00 | 0.00 | 68 | 1018.5 |
| 20260505004413 | 78 | 82 | 2.6 | 2.6 | 0.00 | 0.00 | 0.00 | 68 | 1018.5 |
| 20260505003910 | 78 | 107 | 3.5 | 5.2 | 0.00 | 0.00 | 0.00 | 67 | 1018.5 |
| 20260505003407 | 79 | 134 | 4.3 | 6.1 | 0.00 | 0.00 | 0.00 | 67 | 1018.2 |
| 20260505002903 | 79 | 333 | 1.7 | 1.7 | 0.00 | 0.00 | 0.00 | 66 | 1018.2 |
| 20260505002400 | 79 | 86 | 5.2 | 6.1 | 0.00 | 0.00 | 0.00 | 65 | 1017.8 |
| 20260505001858 | 79 | 54 | 2.6 | 2.6 | 0.00 | 0.00 | 0.00 | 65 | 1018.2 |
| 20260505001355 | 80 | 62 | 1.7 | 1.7 | 0.00 | 0.00 | 0.00 | 65 | 1018.2 |
| 20260505000853 | 80 | 105 | 0.9 | 1.7 | 0.00 | 0.00 | 0.00 | 65 | 1017.8 |
| 20260505000351 | 80 | 67 | 2.6 | 4.3 | 0.00 | 0.00 | 0.00 | 64 | 1017.5 |
| 20260504235847 | 80 | 88 | 0.9 | 0.9 | 0.00 | 0.00 | 0.00 | 64 | 1017.8 |
| 20260504235344 | 80 | 73 | 3.5 | 4.3 | 0.00 | 0.00 | 0.00 | 63 | 1017.5 |
| 20260504234840 | 80 | 100 | 4.3 | 5.2 | 0.00 | 0.00 | 0.00 | 63 | 1017.5 |
| 20260504234338 | 80 | 149 | 2.6 | 2.6 | 0.00 | 0.00 | 0.00 | 62 | 1017.5 |
| 20260504233834 | 81 | 81 | 2.6 | 4.3 | 0.00 | 0.00 | 0.00 | 61 | 1017.5 |
| 20260504233330 | 81 | 139 | 1.7 | 1.7 | 0.00 | 0.00 | 0.00 | 61 | 1017.5 |
| 20260504232827 | 81 | 85 | 4.3 | 6.1 | 0.00 | 0.00 | 0.00 | 61 | 1017.5 |
| 20260504232324 | 81 | 70 | 2.6 | 4.3 | 0.00 | 0.00 | 0.00 | 60 | 1017.1 |
| 20260504231821 | 82 | 81 | 2.6 | 2.6 | 0.00 | 0.00 | 0.00 | 59 | 1017.1 |
| 20260504231318 | 82 | 72 | 3.5 | 6.1 | 0.00 | 0.00 | 0.00 | 58 | 1017.1 |
| 20260504230814 | 82 | 100 | 1.7 | 4.3 | 0.00 | 0.00 | 0.00 | 58 | 1017.1 |
| 20260504230312 | 82 | 85 | 3.5 | 5.2 | 0.00 | 0.00 | 0.00 | 58 | 1017.1 |
| 20260504225810 | 82 | 140 | 0.9 | 1.7 | 0.00 | 0.00 | 0.00 | 57 | 1016.8 |
| 20260504225306 | 82 | 103 | 2.6 | 2.6 | 0.00 | 0.00 | 0.00 | 56 | 1017.1 |
| 20260504224803 | 83 | 91 | 4.3 | 5.2 | 0.00 | 0.00 | 0.00 | 55 | 1016.8 |
| 20260504224300 | 83 | 120 | 4.3 | 5.2 | 0.00 | 0.00 | 0.00 | 54 | 1017.1 |
| 20260504223757 | 83 | 113 | 5.2 | 7.8 | 0.00 | 0.00 | 0.00 | 55 | 1017.1 |
| 20260504223252 | 84 | 45 | 5.2 | 7.0 | 0.00 | 0.00 | 0.00 | 54 | 1017.1 |
| 20260504222749 | 84 | 149 | 3.5 | 6.1 | 0.00 | 0.00 | 0.00 | 54 | 1017.1 |
| 20260504222246 | 85 | 35 | 3.5 | 4.3 | 0.00 | 0.00 | 0.00 | 53 | 1016.8 |
| 20260504221744 | 85 | 40 | 2.6 | 2.6 | 0.00 | 0.00 | 0.00 | 52 | 1016.8 |
| 20260504221241 | 85 | 43 | 2.6 | 4.3 | 0.00 | 0.00 | 0.00 | 51 | 1017.1 |
| 20260504220737 | 84 | 107 | 0.9 | 1.7 | 0.00 | 0.00 | 0.00 | 53 | 1017.1 |
| 20260504220235 | 84 | 159 | 1.7 | 4.3 | 0.00 | 0.00 | 0.00 | 52 | 1017.1 |
| 20260504215732 | 85 | 3 | 3.5 | 6.1 | 0.00 | 0.00 | 0.00 | 52 | 1017.1 |
| 20260504215228 | 85 | 147 | 0.9 | 1.7 | 0.00 | 0.00 | 0.00 | 51 | 1017.1 |
| 20260504214725 | 85 | 35 | 2.6 | 2.6 | 0.00 | 0.00 | 0.00 | 51 | 1017.1 |
| 20260504214221 | 84 | 68 | 2.6 | 5.2 | 0.00 | 0.00 | 0.00 | 50 | 1017.1 |
| 20260504213718 | 85 | 33 | 4.3 | 8.7 | 0.00 | 0.00 | 0.00 | 51 | 1017.1 |
| 20260504213214 | 85 | 149 | 2.6 | 4.3 | 0.00 | 0.00 | 0.00 | 52 | 1017.1 |
| 20260504212711 | 84 | 79 | 2.6 | 4.3 | 0.00 | 0.00 | 0.00 | 51 | 1017.1 |
| 20260504212208 | 86 | 182 | 3.5 | 4.3 | 0.00 | 0.00 | 0.00 | 51 | 1017.1 |
| 20260504211705 | 85 | 68 | 2.6 | 4.3 | 0.00 | 0.00 | 0.00 | 51 | 1017.1 |
| 20260504211201 | 85 | 192 | 0.9 | 2.6 | 0.00 | 0.00 | 0.00 | 52 | 1017.1 |
| 20260504210659 | 84 | 202 | 1.7 | 1.7 | 0.00 | 0.00 | 0.00 | 51 | 1017.5 |
| 20260504210156 | 84 | 32 | 4.3 | 5.2 | 0.00 | 0.00 | 0.00 | 52 | 1017.5 |
| 20260504205653 | 85 | 56 | 4.3 | 6.1 | 0.00 | 0.00 | 0.00 | 51 | 1017.5 |
| 20260504205150 | 85 | 38 | 1.7 | 2.6 | 0.00 | 0.00 | 0.00 | 50 | 1017.5 |
| 20260504204649 | 84 | 143 | 4.3 | 5.2 | 0.00 | 0.00 | 0.00 | 50 | 1017.5 |
| 20260504204147 | 85 | 89 | 2.6 | 4.3 | 0.00 | 0.00 | 0.00 | 51 | 1017.1 |
| 20260504203645 | 85 | 75 | 3.5 | 4.3 | 0.00 | 0.00 | 0.00 | 49 | 1017.5 |
| 20260504203143 | 84 | 35 | 7.0 | 7.8 | 0.00 | 0.00 | 0.00 | 49 | 1017.5 |
| 20260504202642 | 84 | 208 | 4.3 | 7.0 | 0.00 | 0.00 | 0.00 | 51 | 1017.5 |
| 20260504202140 | 84 | 207 | 1.7 | 2.6 | 0.00 | 0.00 | 0.00 | 48 | 1017.5 |
| 20260504201636 | 84 | 169 | 5.2 | 7.0 | 0.00 | 0.00 | 0.00 | 50 | 1017.5 |
| 20260504201134 | 85 | 153 | 4.3 | 6.1 | 0.00 | 0.00 | 0.00 | 50 | 1017.5 |
| 20260504200631 | 85 | 68 | 3.5 | 5.2 | 0.00 | 0.00 | 0.00 | 49 | 1017.5 |
| 20260504200128 | 85 | 75 | 0.9 | 1.7 | 0.00 | 0.00 | 0.00 | 47 | 1017.5 |
| 20260504195623 | 85 | 80 | 2.6 | 2.6 | 0.00 | 0.00 | 0.00 | 49 | 1017.8 |
| 20260504195120 | 85 | 26 | 6.1 | 7.0 | 0.00 | 0.00 | 0.00 | 49 | 1018.2 |
| 20260504194617 | 85 | 177 | 3.5 | 5.2 | 0.00 | 0.00 | 0.00 | 51 | 1017.8 |
| 20260504194113 | 84 | 328 | 2.6 | 4.3 | 0.00 | 0.00 | 0.00 | 48 | 1017.8 |
| 20260504193609 | 84 | 73 | 1.7 | 2.6 | 0.00 | 0.00 | 0.00 | 50 | 1018.2 |
| 20260504193108 | 85 | 99 | 4.3 | 7.0 | 0.00 | 0.00 | 0.00 | 48 | 1018.2 |
| 20260504192606 | 86 | 346 | 2.6 | 2.6 | 0.00 | 0.00 | 0.00 | 48 | 1018.2 |
| 20260504192103 | 85 | 175 | 0.9 | 1.7 | 0.00 | 0.00 | 0.00 | 48 | 1018.2 |
| 20260504191601 | 85 | 86 | 5.2 | 7.0 | 0.00 | 0.00 | 0.00 | 49 | 1018.2 |
| 20260504191057 | 86 | 129 | 1.7 | 2.6 | 0.00 | 0.00 | 0.00 | 49 | 1018.2 |
| 20260504190553 | 84 | 101 | 1.7 | 2.6 | 0.00 | 0.00 | 0.00 | 49 | 1018.2 |
| 20260504190050 | 82 | 51 | 2.6 | 4.3 | 0.00 | 0.00 | 0.00 | 52 | 1018.5 |
| 20260504185547 | 83 | 51 | 3.5 | 5.2 | 0.00 | 0.00 | 0.00 | 53 | 1018.5 |
| 20260504185043 | 84 | 216 | 0.9 | 0.9 | 0.00 | 0.00 | 0.00 | 50 | 1018.8 |
| 20260504184539 | 86 | 46 | 4.3 | 7.0 | 0.00 | 0.00 | 0.00 | 48 | 1018.8 |
| 20260504184034 | 86 | 120 | 3.5 | 4.3 | 0.00 | 0.00 | 0.00 | 47 | 1019.2 |
| 20260504183532 | 83 | 32 | 2.6 | 4.3 | 0.00 | 0.00 | 0.00 | 50 | 1018.8 |
| 20260504183030 | 85 | 103 | 4.3 | 7.0 | 0.00 | 0.00 | 0.00 | 48 | 1019.2 |
| 20260504182526 | 84 | 69 | 2.6 | 2.6 | 0.00 | 0.00 | 0.00 | 50 | 1019.2 |
| 20260504182024 | 84 | 187 | 0.9 | 0.9 | 0.00 | 0.00 | 0.00 | 51 | 1019.2 |
| 20260504181521 | 83 | 54 | 1.7 | 1.7 | 0.00 | 0.00 | 0.00 | 51 | 1019.2 |
| 20260504181019 | 81 | 90 | 4.3 | 6.1 | 0.00 | 0.00 | 0.00 | 53 | 1019.9 |
| 20260504180518 | 82 | 100 | 0.9 | 0.9 | 0.00 | 0.00 | 0.00 | 52 | 1019.9 |
| 20260504180016 | 83 | 23 | 3.5 | 7.8 | 0.00 | 0.00 | 0.00 | 52 | 1019.9 |
| 20260504175513 | 83 | 34 | 4.3 | 5.2 | 0.00 | 0.00 | 0.00 | 51 | 1019.5 |
| 20260504175010 | 82 | 180 | 0.0 | 1.7 | 0.00 | 0.00 | 0.00 | 55 | 1019.2 |
| 20260504174508 | 82 | 61 | 5.2 | 7.0 | 0.00 | 0.00 | 0.00 | 52 | 1019.5 |
| 20260504174005 | 82 | 77 | 2.6 | 5.2 | 0.00 | 0.00 | 0.00 | 53 | 1019.9 |
| 20260504173501 | 82 | 62 | 5.2 | 6.1 | 0.00 | 0.00 | 0.00 | 53 | 1019.9 |
| 20260504172959 | 82 | 54 | 3.5 | 5.2 | 0.00 | 0.00 | 0.00 | 54 | 1019.9 |
| 20260504172454 | 82 | 42 | 4.3 | 5.2 | 0.00 | 0.00 | 0.00 | 51 | 1019.9 |
| 20260504171951 | 81 | 79 | 3.5 | 5.2 | 0.00 | 0.00 | 0.00 | 54 | 1019.9 |
| 20260504171448 | 82 | 59 | 3.5 | 6.1 | 0.00 | 0.00 | 0.00 | 51 | 1019.9 |
| 20260504170945 | 82 | 93 | 1.7 | 4.3 | 0.00 | 0.00 | 0.00 | 53 | 1020.2 |
| 20260504170441 | 81 | 171 | 3.5 | 4.3 | 0.00 | 0.00 | 0.00 | 52 | 1020.2 |
| 20260504160401 | 80 | 38 | 6.1 | 8.7 | 0.00 | 0.00 | 0.00 | 56 | 1020.9 |